sensor_id;sensor_type;location;lat;lon;timestamp;P1;durP1;ratioP1;P2;durP2;ratioP2
769;SDS011;368;48.698;9.116;2022-07-10T00:00:12;5.10;;;4.70;;
769;SDS011;368;48.698;9.116;2022-07-10T00:02:42;5.07;;;4.67;;
769;SDS011;368;48.698;9.116;2022-07-10T00:05:11;5.00;;;4.60;;
769;SDS011;368;48.698;9.116;2022-07-10T00:07:38;4.73;;;4.33;;
769;SDS011;368;48.698;9.116;2022-07-10T00:10:05;5.30;;;4.90;;
769;SDS011;368;48.698;9.116;2022-07-10T00:12:34;4.87;;;4.47;;
769;SDS011;368;48.698;9.116;2022-07-10T00:15:00;4.60;;;4.30;;
769;SDS011;368;48.698;9.116;2022-07-10T00:17:27;5.20;;;4.73;;
769;SDS011;368;48.698;9.116;2022-07-10T00:19:54;4.70;;;4.30;;
769;SDS011;368;48.698;9.116;2022-07-10T00:22:22;6.00;;;5.47;;
769;SDS011;368;48.698;9.116;2022-07-10T00:24:49;6.20;;;5.10;;
769;SDS011;368;48.698;9.116;2022-07-10T00:27:16;5.80;;;5.27;;
769;SDS011;368;48.698;9.116;2022-07-10T00:29:43;4.63;;;4.23;;
769;SDS011;368;48.698;9.116;2022-07-10T00:32:10;4.83;;;4.53;;
769;SDS011;368;48.698;9.116;2022-07-10T00:34:37;5.07;;;4.67;;
769;SDS011;368;48.698;9.116;2022-07-10T00:37:04;4.80;;;4.40;;
769;SDS011;368;48.698;9.116;2022-07-10T00:39:32;4.90;;;4.50;;
769;SDS011;368;48.698;9.116;2022-07-10T00:42:05;7.23;;;4.43;;
769;SDS011;368;48.698;9.116;2022-07-10T00:44:33;5.10;;;4.50;;
769;SDS011;368;48.698;9.116;2022-07-10T00:47:00;4.67;;;4.37;;
769;SDS011;368;48.698;9.116;2022-07-10T00:49:27;4.37;;;4.07;;
769;SDS011;368;48.698;9.116;2022-07-10T00:51:54;5.20;;;4.67;;
769;SDS011;368;48.698;9.116;2022-07-10T00:54:22;4.70;;;4.30;;
769;SDS011;368;48.698;9.116;2022-07-10T00:56:50;4.67;;;4.30;;
769;SDS011;368;48.698;9.116;2022-07-10T00:59:17;4.73;;;4.33;;
769;SDS011;368;48.698;9.116;2022-07-10T01:01:44;5.43;;;4.40;;
769;SDS011;368;48.698;9.116;2022-07-10T01:04:11;4.90;;;4.50;;
769;SDS011;368;48.698;9.116;2022-07-10T01:06:38;5.33;;;4.43;;
769;SDS011;368;48.698;9.116;2022-07-10T01:09:05;4.60;;;4.20;;
769;SDS011;368;48.698;9.116;2022-07-10T01:11:33;4.63;;;4.23;;
769;SDS011;368;48.698;9.116;2022-07-10T01:14:01;4.00;;;3.70;;
769;SDS011;368;48.698;9.116;2022-07-10T01:16:28;4.77;;;4.47;;
769;SDS011;368;48.698;9.116;2022-07-10T01:18:55;5.20;;;4.90;;
769;SDS011;368;48.698;9.116;2022-07-10T01:21:24;5.03;;;4.50;;
769;SDS011;368;48.698;9.116;2022-07-10T01:23:51;5.83;;;5.07;;
769;SDS011;368;48.698;9.116;2022-07-10T01:26:18;6.20;;;5.80;;
769;SDS011;368;48.698;9.116;2022-07-10T01:28:47;6.00;;;5.50;;
769;SDS011;368;48.698;9.116;2022-07-10T01:31:15;6.13;;;5.60;;
769;SDS011;368;48.698;9.116;2022-07-10T01:33:43;6.17;;;5.40;;
769;SDS011;368;48.698;9.116;2022-07-10T01:36:10;5.87;;;5.47;;
769;SDS011;368;48.698;9.116;2022-07-10T01:38:39;6.63;;;5.57;;
769;SDS011;368;48.698;9.116;2022-07-10T01:41:05;5.77;;;5.37;;
769;SDS011;368;48.698;9.116;2022-07-10T01:43:33;5.27;;;4.90;;
769;SDS011;368;48.698;9.116;2022-07-10T01:46:00;6.80;;;5.93;;
769;SDS011;368;48.698;9.116;2022-07-10T01:48:27;6.30;;;5.80;;
769;SDS011;368;48.698;9.116;2022-07-10T01:50:54;6.30;;;5.80;;
769;SDS011;368;48.698;9.116;2022-07-10T01:53:21;5.83;;;5.27;;
769;SDS011;368;48.698;9.116;2022-07-10T01:55:49;5.40;;;5.00;;
769;SDS011;368;48.698;9.116;2022-07-10T01:58:16;6.43;;;5.80;;
769;SDS011;368;48.698;9.116;2022-07-10T02:00:43;6.03;;;5.47;;
769;SDS011;368;48.698;9.116;2022-07-10T02:03:10;5.83;;;5.43;;
769;SDS011;368;48.698;9.116;2022-07-10T02:05:54;6.40;;;5.90;;
769;SDS011;368;48.698;9.116;2022-07-10T02:08:21;6.40;;;5.90;;
769;SDS011;368;48.698;9.116;2022-07-10T02:10:49;6.50;;;5.90;;
769;SDS011;368;48.698;9.116;2022-07-10T02:13:16;5.93;;;5.53;;
769;SDS011;368;48.698;9.116;2022-07-10T02:15:45;6.97;;;6.40;;
769;SDS011;368;48.698;9.116;2022-07-10T02:18:12;8.03;;;7.23;;
769;SDS011;368;48.698;9.116;2022-07-10T02:20:39;8.10;;;7.43;;
769;SDS011;368;48.698;9.116;2022-07-10T02:23:06;8.67;;;7.87;;
769;SDS011;368;48.698;9.116;2022-07-10T02:25:33;10.13;;;9.33;;
769;SDS011;368;48.698;9.116;2022-07-10T02:28:01;10.80;;;9.90;;
769;SDS011;368;48.698;9.116;2022-07-10T02:30:28;13.83;;;12.43;;
769;SDS011;368;48.698;9.116;2022-07-10T02:32:54;14.20;;;12.80;;
769;SDS011;368;48.698;9.116;2022-07-10T02:35:21;15.93;;;14.40;;
769;SDS011;368;48.698;9.116;2022-07-10T02:37:48;16.50;;;14.97;;
769;SDS011;368;48.698;9.116;2022-07-10T02:40:15;14.77;;;13.37;;
769;SDS011;368;48.698;9.116;2022-07-10T02:42:42;14.97;;;13.70;;
769;SDS011;368;48.698;9.116;2022-07-10T02:45:10;16.33;;;14.87;;
769;SDS011;368;48.698;9.116;2022-07-10T02:47:37;18.33;;;16.67;;
769;SDS011;368;48.698;9.116;2022-07-10T02:50:04;16.70;;;15.30;;
769;SDS011;368;48.698;9.116;2022-07-10T02:52:31;16.90;;;15.30;;
769;SDS011;368;48.698;9.116;2022-07-10T02:54:58;17.00;;;15.40;;
769;SDS011;368;48.698;9.116;2022-07-10T02:57:25;17.23;;;15.60;;
769;SDS011;368;48.698;9.116;2022-07-10T02:59:53;16.27;;;14.70;;
769;SDS011;368;48.698;9.116;2022-07-10T03:02:21;15.77;;;14.40;;
769;SDS011;368;48.698;9.116;2022-07-10T03:04:47;15.67;;;14.07;;
769;SDS011;368;48.698;9.116;2022-07-10T03:07:14;15.90;;;14.40;;
769;SDS011;368;48.698;9.116;2022-07-10T03:09:41;15.17;;;13.67;;
769;SDS011;368;48.698;9.116;2022-07-10T03:12:09;15.87;;;14.47;;
769;SDS011;368;48.698;9.116;2022-07-10T03:14:35;16.50;;;15.00;;
769;SDS011;368;48.698;9.116;2022-07-10T03:17:02;17.90;;;16.27;;
769;SDS011;368;48.698;9.116;2022-07-10T03:19:31;18.60;;;15.70;;
769;SDS011;368;48.698;9.116;2022-07-10T03:21:58;16.77;;;15.23;;
769;SDS011;368;48.698;9.116;2022-07-10T03:24:25;18.40;;;16.90;;
769;SDS011;368;48.698;9.116;2022-07-10T03:26:52;19.53;;;17.23;;
769;SDS011;368;48.698;9.116;2022-07-10T03:29:18;17.97;;;16.40;;
769;SDS011;368;48.698;9.116;2022-07-10T03:31:45;17.50;;;15.80;;
769;SDS011;368;48.698;9.116;2022-07-10T03:34:12;18.03;;;16.17;;
769;SDS011;368;48.698;9.116;2022-07-10T03:36:40;19.97;;;18.30;;
769;SDS011;368;48.698;9.116;2022-07-10T03:39:07;18.60;;;17.00;;
769;SDS011;368;48.698;9.116;2022-07-10T03:41:34;17.77;;;16.23;;
769;SDS011;368;48.698;9.116;2022-07-10T03:44:01;18.40;;;16.60;;
769;SDS011;368;48.698;9.116;2022-07-10T03:46:28;18.83;;;16.83;;
769;SDS011;368;48.698;9.116;2022-07-10T03:48:55;18.47;;;16.67;;
769;SDS011;368;48.698;9.116;2022-07-10T03:51:21;19.50;;;17.60;;
769;SDS011;368;48.698;9.116;2022-07-10T03:53:50;20.23;;;18.07;;
769;SDS011;368;48.698;9.116;2022-07-10T03:56:17;18.23;;;16.60;;
769;SDS011;368;48.698;9.116;2022-07-10T03:58:57;18.30;;;16.60;;
769;SDS011;368;48.698;9.116;2022-07-10T04:01:24;20.13;;;18.20;;
769;SDS011;368;48.698;9.116;2022-07-10T04:03:51;21.43;;;19.50;;
769;SDS011;368;48.698;9.116;2022-07-10T04:06:18;21.80;;;19.70;;
769;SDS011;368;48.698;9.116;2022-07-10T04:08:44;19.50;;;17.70;;
769;SDS011;368;48.698;9.116;2022-07-10T04:11:12;18.40;;;16.80;;
769;SDS011;368;48.698;9.116;2022-07-10T04:13:39;16.63;;;14.93;;
769;SDS011;368;48.698;9.116;2022-07-10T04:16:06;17.47;;;15.67;;
769;SDS011;368;48.698;9.116;2022-07-10T04:18:37;17.33;;;15.60;;
769;SDS011;368;48.698;9.116;2022-07-10T04:21:04;17.10;;;15.60;;
769;SDS011;368;48.698;9.116;2022-07-10T04:23:31;16.17;;;14.67;;
769;SDS011;368;48.698;9.116;2022-07-10T04:25:58;15.93;;;14.30;;
769;SDS011;368;48.698;9.116;2022-07-10T04:28:26;16.80;;;15.20;;
769;SDS011;368;48.698;9.116;2022-07-10T04:30:53;14.57;;;13.27;;
769;SDS011;368;48.698;9.116;2022-07-10T04:33:20;17.83;;;15.40;;
769;SDS011;368;48.698;9.116;2022-07-10T04:35:47;16.87;;;15.37;;
769;SDS011;368;48.698;9.116;2022-07-10T04:38:13;16.53;;;15.00;;
769;SDS011;368;48.698;9.116;2022-07-10T04:40:40;17.13;;;15.43;;
769;SDS011;368;48.698;9.116;2022-07-10T04:43:07;18.80;;;15.90;;
769;SDS011;368;48.698;9.116;2022-07-10T04:45:36;16.67;;;15.07;;
769;SDS011;368;48.698;9.116;2022-07-10T04:48:03;14.30;;;13.00;;
769;SDS011;368;48.698;9.116;2022-07-10T04:50:31;16.30;;;14.57;;
769;SDS011;368;48.698;9.116;2022-07-10T04:52:58;15.97;;;14.33;;
769;SDS011;368;48.698;9.116;2022-07-10T04:55:25;15.03;;;13.67;;
769;SDS011;368;48.698;9.116;2022-07-10T04:57:52;14.60;;;13.30;;
769;SDS011;368;48.698;9.116;2022-07-10T05:00:19;13.07;;;11.97;;
769;SDS011;368;48.698;9.116;2022-07-10T05:02:47;11.93;;;10.80;;
769;SDS011;368;48.698;9.116;2022-07-10T05:05:14;10.03;;;9.13;;
769;SDS011;368;48.698;9.116;2022-07-10T05:07:41;11.07;;;10.10;;
769;SDS011;368;48.698;9.116;2022-07-10T05:10:08;11.20;;;10.20;;
769;SDS011;368;48.698;9.116;2022-07-10T05:12:35;12.93;;;10.27;;
769;SDS011;368;48.698;9.116;2022-07-10T05:15:01;11.27;;;10.33;;
769;SDS011;368;48.698;9.116;2022-07-10T05:17:28;10.73;;;9.63;;
769;SDS011;368;48.698;9.116;2022-07-10T05:19:58;9.43;;;8.63;;
769;SDS011;368;48.698;9.116;2022-07-10T05:22:25;9.77;;;8.97;;
769;SDS011;368;48.698;9.116;2022-07-10T05:24:51;8.50;;;7.80;;
769;SDS011;368;48.698;9.116;2022-07-10T05:27:18;12.10;;;8.70;;
769;SDS011;368;48.698;9.116;2022-07-10T05:29:45;9.27;;;8.30;;
769;SDS011;368;48.698;9.116;2022-07-10T05:32:12;10.57;;;8.63;;
769;SDS011;368;48.698;9.116;2022-07-10T05:34:39;9.07;;;7.77;;
769;SDS011;368;48.698;9.116;2022-07-10T05:37:08;8.97;;;8.07;;
769;SDS011;368;48.698;9.116;2022-07-10T05:39:34;9.20;;;7.53;;
769;SDS011;368;48.698;9.116;2022-07-10T05:42:01;7.70;;;7.10;;
769;SDS011;368;48.698;9.116;2022-07-10T05:44:28;6.70;;;6.00;;
769;SDS011;368;48.698;9.116;2022-07-10T05:46:55;8.43;;;6.47;;
769;SDS011;368;48.698;9.116;2022-07-10T05:49:22;6.50;;;6.00;;
769;SDS011;368;48.698;9.116;2022-07-10T05:51:49;6.23;;;5.13;;
769;SDS011;368;48.698;9.116;2022-07-10T05:54:17;7.20;;;4.83;;
769;SDS011;368;48.698;9.116;2022-07-10T05:56:44;5.77;;;5.27;;
769;SDS011;368;48.698;9.116;2022-07-10T05:59:11;5.57;;;4.87;;
769;SDS011;368;48.698;9.116;2022-07-10T06:01:37;10.33;;;3.80;;
769;SDS011;368;48.698;9.116;2022-07-10T06:04:04;5.17;;;4.20;;
769;SDS011;368;48.698;9.116;2022-07-10T06:06:31;4.97;;;4.17;;
769;SDS011;368;48.698;9.116;2022-07-10T06:08:58;4.23;;;3.30;;
769;SDS011;368;48.698;9.116;2022-07-10T06:11:26;6.17;;;3.77;;
769;SDS011;368;48.698;9.116;2022-07-10T06:13:53;4.00;;;2.80;;
769;SDS011;368;48.698;9.116;2022-07-10T06:16:21;3.60;;;2.90;;
769;SDS011;368;48.698;9.116;2022-07-10T06:18:47;4.73;;;3.53;;
769;SDS011;368;48.698;9.116;2022-07-10T06:21:14;4.83;;;3.27;;
769;SDS011;368;48.698;9.116;2022-07-10T06:23:43;13.83;;;3.70;;
769;SDS011;368;48.698;9.116;2022-07-10T06:26:11;3.90;;;3.27;;
769;SDS011;368;48.698;9.116;2022-07-10T06:28:39;3.57;;;3.20;;
769;SDS011;368;48.698;9.116;2022-07-10T06:31:05;4.20;;;3.47;;
769;SDS011;368;48.698;9.116;2022-07-10T06:33:32;4.10;;;3.17;;
769;SDS011;368;48.698;9.116;2022-07-10T06:36:00;5.87;;;4.63;;
769;SDS011;368;48.698;9.116;2022-07-10T06:38:27;4.17;;;3.77;;
769;SDS011;368;48.698;9.116;2022-07-10T06:40:53;5.27;;;4.00;;
769;SDS011;368;48.698;9.116;2022-07-10T06:43:20;4.80;;;3.50;;
769;SDS011;368;48.698;9.116;2022-07-10T06:45:48;4.50;;;3.83;;
769;SDS011;368;48.698;9.116;2022-07-10T06:48:15;4.13;;;3.73;;
769;SDS011;368;48.698;9.116;2022-07-10T06:50:42;3.73;;;2.93;;
769;SDS011;368;48.698;9.116;2022-07-10T06:53:09;3.57;;;3.27;;
769;SDS011;368;48.698;9.116;2022-07-10T06:55:36;5.03;;;4.00;;
769;SDS011;368;48.698;9.116;2022-07-10T06:58:04;3.97;;;3.63;;
769;SDS011;368;48.698;9.116;2022-07-10T07:00:31;7.03;;;3.50;;
769;SDS011;368;48.698;9.116;2022-07-10T07:02:59;3.37;;;3.10;;
769;SDS011;368;48.698;9.116;2022-07-10T07:05:26;6.60;;;3.30;;
769;SDS011;368;48.698;9.116;2022-07-10T07:07:52;3.27;;;2.40;;
769;SDS011;368;48.698;9.116;2022-07-10T07:10:19;2.50;;;2.30;;
769;SDS011;368;48.698;9.116;2022-07-10T07:12:46;5.83;;;3.10;;
769;SDS011;368;48.698;9.116;2022-07-10T07:15:13;4.07;;;2.50;;
769;SDS011;368;48.698;9.116;2022-07-10T07:17:41;3.17;;;2.57;;
769;SDS011;368;48.698;9.116;2022-07-10T07:20:23;3.33;;;3.03;;
769;SDS011;368;48.698;9.116;2022-07-10T07:23:09;5.60;;;2.50;;
769;SDS011;368;48.698;9.116;2022-07-10T07:25:35;4.53;;;3.13;;
769;SDS011;368;48.698;9.116;2022-07-10T07:28:03;3.50;;;2.43;;
769;SDS011;368;48.698;9.116;2022-07-10T07:30:30;3.20;;;2.70;;
769;SDS011;368;48.698;9.116;2022-07-10T07:32:57;2.80;;;2.60;;
769;SDS011;368;48.698;9.116;2022-07-10T07:35:25;2.73;;;2.53;;
769;SDS011;368;48.698;9.116;2022-07-10T07:37:51;6.30;;;2.50;;
769;SDS011;368;48.698;9.116;2022-07-10T07:40:19;3.20;;;2.20;;
769;SDS011;368;48.698;9.116;2022-07-10T07:42:48;3.30;;;2.57;;
769;SDS011;368;48.698;9.116;2022-07-10T07:45:15;4.07;;;2.80;;
769;SDS011;368;48.698;9.116;2022-07-10T07:47:42;4.23;;;2.00;;
769;SDS011;368;48.698;9.116;2022-07-10T07:50:10;3.03;;;2.67;;
769;SDS011;368;48.698;9.116;2022-07-10T07:52:38;4.10;;;2.80;;
769;SDS011;368;48.698;9.116;2022-07-10T07:55:05;3.27;;;2.90;;
769;SDS011;368;48.698;9.116;2022-07-10T07:57:33;5.47;;;2.53;;
769;SDS011;368;48.698;9.116;2022-07-10T08:00:00;3.63;;;1.93;;
769;SDS011;368;48.698;9.116;2022-07-10T08:02:27;3.83;;;1.73;;
769;SDS011;368;48.698;9.116;2022-07-10T08:04:53;3.67;;;2.30;;
769;SDS011;368;48.698;9.116;2022-07-10T08:07:20;5.17;;;1.97;;
769;SDS011;368;48.698;9.116;2022-07-10T08:09:48;2.60;;;1.73;;
769;SDS011;368;48.698;9.116;2022-07-10T08:12:16;3.53;;;2.13;;
769;SDS011;368;48.698;9.116;2022-07-10T08:14:43;2.30;;;1.90;;
769;SDS011;368;48.698;9.116;2022-07-10T08:17:10;3.03;;;2.10;;
769;SDS011;368;48.698;9.116;2022-07-10T08:19:37;2.37;;;2.00;;
769;SDS011;368;48.698;9.116;2022-07-10T08:22:04;3.97;;;2.43;;
769;SDS011;368;48.698;9.116;2022-07-10T08:24:31;3.83;;;2.03;;
769;SDS011;368;48.698;9.116;2022-07-10T08:26:59;3.87;;;2.00;;
769;SDS011;368;48.698;9.116;2022-07-10T08:29:26;2.30;;;1.80;;
769;SDS011;368;48.698;9.116;2022-07-10T08:31:53;3.10;;;2.07;;
769;SDS011;368;48.698;9.116;2022-07-10T08:34:20;2.30;;;2.00;;
769;SDS011;368;48.698;9.116;2022-07-10T08:36:46;3.17;;;1.87;;
769;SDS011;368;48.698;9.116;2022-07-10T08:39:13;3.20;;;1.60;;
769;SDS011;368;48.698;9.116;2022-07-10T08:41:42;2.77;;;1.83;;
769;SDS011;368;48.698;9.116;2022-07-10T08:44:11;3.43;;;1.90;;
769;SDS011;368;48.698;9.116;2022-07-10T08:46:39;2.63;;;2.07;;
769;SDS011;368;48.698;9.116;2022-07-10T08:49:08;3.90;;;1.90;;
769;SDS011;368;48.698;9.116;2022-07-10T08:51:36;4.70;;;2.00;;
769;SDS011;368;48.698;9.116;2022-07-10T08:54:06;2.23;;;1.60;;
769;SDS011;368;48.698;9.116;2022-07-10T08:56:34;4.20;;;1.70;;
769;SDS011;368;48.698;9.116;2022-07-10T08:59:02;3.07;;;1.80;;
769;SDS011;368;48.698;9.116;2022-07-10T09:01:31;2.37;;;2.17;;
769;SDS011;368;48.698;9.116;2022-07-10T09:03:58;2.70;;;1.80;;
769;SDS011;368;48.698;9.116;2022-07-10T09:06:25;3.63;;;1.90;;
769;SDS011;368;48.698;9.116;2022-07-10T09:08:57;6.00;;;2.27;;
769;SDS011;368;48.698;9.116;2022-07-10T09:11:26;4.37;;;2.20;;
769;SDS011;368;48.698;9.116;2022-07-10T09:13:55;3.23;;;1.60;;
769;SDS011;368;48.698;9.116;2022-07-10T09:16:23;3.20;;;2.50;;
769;SDS011;368;48.698;9.116;2022-07-10T09:18:53;3.03;;;2.10;;
769;SDS011;368;48.698;9.116;2022-07-10T09:21:20;4.10;;;1.90;;
769;SDS011;368;48.698;9.116;2022-07-10T09:23:48;4.17;;;1.87;;
769;SDS011;368;48.698;9.116;2022-07-10T09:26:14;2.20;;;2.00;;
769;SDS011;368;48.698;9.116;2022-07-10T09:28:41;3.57;;;2.23;;
769;SDS011;368;48.698;9.116;2022-07-10T09:31:08;5.00;;;1.87;;
769;SDS011;368;48.698;9.116;2022-07-10T09:33:35;5.43;;;2.90;;
769;SDS011;368;48.698;9.116;2022-07-10T09:36:07;4.57;;;2.47;;
769;SDS011;368;48.698;9.116;2022-07-10T09:38:47;5.13;;;1.97;;
769;SDS011;368;48.698;9.116;2022-07-10T09:41:20;4.60;;;2.37;;
769;SDS011;368;48.698;9.116;2022-07-10T09:43:48;2.30;;;2.10;;
769;SDS011;368;48.698;9.116;2022-07-10T09:46:17;2.40;;;2.00;;
769;SDS011;368;48.698;9.116;2022-07-10T09:48:44;3.40;;;2.03;;
769;SDS011;368;48.698;9.116;2022-07-10T09:51:13;2.40;;;1.90;;
769;SDS011;368;48.698;9.116;2022-07-10T09:53:40;4.80;;;2.10;;
769;SDS011;368;48.698;9.116;2022-07-10T09:56:08;2.40;;;1.77;;
769;SDS011;368;48.698;9.116;2022-07-10T09:58:36;2.23;;;2.00;;
769;SDS011;368;48.698;9.116;2022-07-10T10:01:04;3.10;;;2.17;;
769;SDS011;368;48.698;9.116;2022-07-10T10:03:33;4.43;;;2.30;;
769;SDS011;368;48.698;9.116;2022-07-10T10:06:02;3.10;;;1.90;;
769;SDS011;368;48.698;9.116;2022-07-10T10:08:32;1.70;;;1.60;;
769;SDS011;368;48.698;9.116;2022-07-10T10:11:12;2.43;;;1.30;;
769;SDS011;368;48.698;9.116;2022-07-10T10:13:41;1.93;;;1.53;;
769;SDS011;368;48.698;9.116;2022-07-10T10:16:10;2.20;;;2.00;;
769;SDS011;368;48.698;9.116;2022-07-10T10:18:37;6.30;;;2.30;;
769;SDS011;368;48.698;9.116;2022-07-10T10:21:25;3.60;;;2.13;;
769;SDS011;368;48.698;9.116;2022-07-10T10:23:53;2.87;;;2.53;;
769;SDS011;368;48.698;9.116;2022-07-10T10:26:21;6.27;;;2.70;;
769;SDS011;368;48.698;9.116;2022-07-10T10:28:49;3.80;;;2.43;;
769;SDS011;368;48.698;9.116;2022-07-10T10:31:18;2.27;;;1.90;;
769;SDS011;368;48.698;9.116;2022-07-10T10:33:46;3.13;;;2.17;;
769;SDS011;368;48.698;9.116;2022-07-10T10:39:14;3.80;;;2.37;;
769;SDS011;368;48.698;9.116;2022-07-10T10:41:47;3.40;;;2.30;;
769;SDS011;368;48.698;9.116;2022-07-10T10:44:22;4.67;;;2.27;;
769;SDS011;368;48.698;9.116;2022-07-10T10:46:56;4.07;;;2.53;;
769;SDS011;368;48.698;9.116;2022-07-10T10:52:27;1.90;;;1.70;;
769;SDS011;368;48.698;9.116;2022-07-10T10:55:02;2.30;;;1.73;;
769;SDS011;368;48.698;9.116;2022-07-10T10:57:36;3.70;;;2.23;;
769;SDS011;368;48.698;9.116;2022-07-10T11:00:09;4.70;;;2.07;;
769;SDS011;368;48.698;9.116;2022-07-10T11:02:40;2.00;;;1.80;;
769;SDS011;368;48.698;9.116;2022-07-10T11:08:07;3.57;;;1.90;;
769;SDS011;368;48.698;9.116;2022-07-10T11:10:37;5.17;;;1.97;;
769;SDS011;368;48.698;9.116;2022-07-10T11:13:04;2.87;;;1.67;;
769;SDS011;368;48.698;9.116;2022-07-10T11:15:32;3.70;;;1.80;;
769;SDS011;368;48.698;9.116;2022-07-10T11:18:04;2.33;;;2.10;;
769;SDS011;368;48.698;9.116;2022-07-10T11:20:32;5.67;;;2.30;;
769;SDS011;368;48.698;9.116;2022-07-10T11:26:05;2.90;;;1.70;;
769;SDS011;368;48.698;9.116;2022-07-10T11:28:48;4.80;;;2.30;;
769;SDS011;368;48.698;9.116;2022-07-10T11:31:17;3.23;;;1.90;;
769;SDS011;368;48.698;9.116;2022-07-10T11:33:44;2.50;;;1.60;;
769;SDS011;368;48.698;9.116;2022-07-10T11:36:13;2.67;;;1.90;;
769;SDS011;368;48.698;9.116;2022-07-10T11:38:42;1.60;;;1.50;;
769;SDS011;368;48.698;9.116;2022-07-10T11:41:15;1.90;;;1.63;;
769;SDS011;368;48.698;9.116;2022-07-10T11:43:46;2.10;;;1.23;;
769;SDS011;368;48.698;9.116;2022-07-10T11:46:14;2.43;;;1.70;;
769;SDS011;368;48.698;9.116;2022-07-10T11:48:41;3.10;;;1.70;;
769;SDS011;368;48.698;9.116;2022-07-10T11:51:21;1.60;;;1.20;;
769;SDS011;368;48.698;9.116;2022-07-10T11:53:58;2.70;;;1.53;;
769;SDS011;368;48.698;9.116;2022-07-10T11:56:29;3.70;;;1.73;;
769;SDS011;368;48.698;9.116;2022-07-10T11:58:59;2.50;;;1.40;;
769;SDS011;368;48.698;9.116;2022-07-10T12:01:27;3.17;;;1.40;;
769;SDS011;368;48.698;9.116;2022-07-10T12:03:55;2.70;;;1.40;;
769;SDS011;368;48.698;9.116;2022-07-10T12:06:23;1.53;;;1.00;;
769;SDS011;368;48.698;9.116;2022-07-10T12:08:51;3.70;;;1.60;;
769;SDS011;368;48.698;9.116;2022-07-10T12:11:18;3.43;;;1.47;;
769;SDS011;368;48.698;9.116;2022-07-10T12:13:47;2.33;;;1.60;;
769;SDS011;368;48.698;9.116;2022-07-10T12:16:16;1.40;;;1.00;;
769;SDS011;368;48.698;9.116;2022-07-10T12:18:44;1.73;;;1.37;;
769;SDS011;368;48.698;9.116;2022-07-10T12:21:12;2.23;;;1.10;;
769;SDS011;368;48.698;9.116;2022-07-10T12:23:40;2.60;;;0.90;;
769;SDS011;368;48.698;9.116;2022-07-10T12:26:11;3.53;;;1.23;;
769;SDS011;368;48.698;9.116;2022-07-10T12:31:33;2.23;;;1.13;;
769;SDS011;368;48.698;9.116;2022-07-10T12:34:01;1.77;;;1.10;;
769;SDS011;368;48.698;9.116;2022-07-10T12:36:41;1.00;;;0.60;;
769;SDS011;368;48.698;9.116;2022-07-10T12:39:09;1.00;;;0.90;;
769;SDS011;368;48.698;9.116;2022-07-10T12:41:53;1.03;;;0.90;;
769;SDS011;368;48.698;9.116;2022-07-10T12:44:33;1.40;;;0.90;;
769;SDS011;368;48.698;9.116;2022-07-10T12:47:01;3.03;;;1.20;;
769;SDS011;368;48.698;9.116;2022-07-10T12:49:28;2.70;;;1.00;;
769;SDS011;368;48.698;9.116;2022-07-10T12:51:55;2.00;;;1.07;;
769;SDS011;368;48.698;9.116;2022-07-10T12:54:32;1.53;;;1.10;;
769;SDS011;368;48.698;9.116;2022-07-10T12:56:59;1.53;;;0.90;;
769;SDS011;368;48.698;9.116;2022-07-10T12:59:27;2.60;;;0.70;;
769;SDS011;368;48.698;9.116;2022-07-10T13:01:56;1.57;;;1.17;;
769;SDS011;368;48.698;9.116;2022-07-10T13:04:23;2.10;;;0.80;;
769;SDS011;368;48.698;9.116;2022-07-10T13:06:52;2.50;;;0.90;;
769;SDS011;368;48.698;9.116;2022-07-10T13:09:20;1.73;;;0.73;;
769;SDS011;368;48.698;9.116;2022-07-10T13:11:48;1.80;;;1.00;;
769;SDS011;368;48.698;9.116;2022-07-10T13:14:16;2.30;;;0.80;;
769;SDS011;368;48.698;9.116;2022-07-10T13:16:43;2.40;;;0.90;;
769;SDS011;368;48.698;9.116;2022-07-10T13:19:11;1.17;;;0.73;;
769;SDS011;368;48.698;9.116;2022-07-10T13:21:38;2.73;;;0.90;;
769;SDS011;368;48.698;9.116;2022-07-10T13:24:05;1.20;;;0.70;;
769;SDS011;368;48.698;9.116;2022-07-10T13:26:32;2.20;;;0.77;;
769;SDS011;368;48.698;9.116;2022-07-10T13:28:59;2.10;;;0.83;;
769;SDS011;368;48.698;9.116;2022-07-10T13:31:26;3.10;;;0.80;;
769;SDS011;368;48.698;9.116;2022-07-10T13:33:53;1.47;;;0.77;;
769;SDS011;368;48.698;9.116;2022-07-10T13:36:21;1.43;;;0.73;;
769;SDS011;368;48.698;9.116;2022-07-10T13:38:48;1.63;;;0.80;;
769;SDS011;368;48.698;9.116;2022-07-10T13:41:17;2.60;;;1.10;;
769;SDS011;368;48.698;9.116;2022-07-10T13:43:44;2.23;;;1.17;;
769;SDS011;368;48.698;9.116;2022-07-10T13:46:11;1.77;;;0.90;;
769;SDS011;368;48.698;9.116;2022-07-10T13:48:38;1.23;;;0.60;;
769;SDS011;368;48.698;9.116;2022-07-10T13:51:05;1.67;;;0.77;;
769;SDS011;368;48.698;9.116;2022-07-10T13:53:33;4.20;;;1.13;;
769;SDS011;368;48.698;9.116;2022-07-10T13:56:00;1.10;;;0.60;;
769;SDS011;368;48.698;9.116;2022-07-10T13:58:30;1.37;;;0.70;;
769;SDS011;368;48.698;9.116;2022-07-10T14:00:57;1.63;;;0.80;;
769;SDS011;368;48.698;9.116;2022-07-10T14:03:24;1.37;;;1.00;;
769;SDS011;368;48.698;9.116;2022-07-10T14:05:52;2.03;;;1.00;;
769;SDS011;368;48.698;9.116;2022-07-10T14:08:19;0.83;;;0.70;;
769;SDS011;368;48.698;9.116;2022-07-10T14:10:47;1.93;;;0.90;;
769;SDS011;368;48.698;9.116;2022-07-10T14:13:14;3.03;;;1.00;;
769;SDS011;368;48.698;9.116;2022-07-10T14:15:41;4.93;;;0.90;;
769;SDS011;368;48.698;9.116;2022-07-10T14:18:09;2.43;;;1.07;;
769;SDS011;368;48.698;9.116;2022-07-10T14:20:36;1.20;;;0.80;;
769;SDS011;368;48.698;9.116;2022-07-10T14:23:17;3.60;;;0.90;;
769;SDS011;368;48.698;9.116;2022-07-10T14:25:44;2.83;;;1.00;;
769;SDS011;368;48.698;9.116;2022-07-10T14:28:12;2.40;;;0.90;;
769;SDS011;368;48.698;9.116;2022-07-10T14:30:39;3.63;;;1.23;;
769;SDS011;368;48.698;9.116;2022-07-10T14:33:06;2.70;;;0.83;;
769;SDS011;368;48.698;9.116;2022-07-10T14:35:33;1.80;;;0.87;;
769;SDS011;368;48.698;9.116;2022-07-10T14:37:59;2.33;;;1.07;;
769;SDS011;368;48.698;9.116;2022-07-10T14:40:26;3.37;;;0.90;;
769;SDS011;368;48.698;9.116;2022-07-10T14:42:53;2.13;;;1.00;;
769;SDS011;368;48.698;9.116;2022-07-10T14:45:23;2.33;;;0.93;;
769;SDS011;368;48.698;9.116;2022-07-10T14:47:49;2.40;;;0.97;;
769;SDS011;368;48.698;9.116;2022-07-10T14:50:16;2.40;;;1.00;;
769;SDS011;368;48.698;9.116;2022-07-10T14:52:43;2.07;;;0.90;;
769;SDS011;368;48.698;9.116;2022-07-10T14:55:10;1.43;;;1.00;;
769;SDS011;368;48.698;9.116;2022-07-10T14:57:37;1.90;;;0.93;;
769;SDS011;368;48.698;9.116;2022-07-10T15:00:05;3.40;;;0.73;;
769;SDS011;368;48.698;9.116;2022-07-10T15:02:33;2.73;;;1.00;;
769;SDS011;368;48.698;9.116;2022-07-10T15:05:00;3.33;;;0.90;;
769;SDS011;368;48.698;9.116;2022-07-10T15:07:27;2.00;;;1.10;;
769;SDS011;368;48.698;9.116;2022-07-10T15:09:54;1.27;;;0.70;;
769;SDS011;368;48.698;9.116;2022-07-10T15:12:21;2.20;;;0.80;;
769;SDS011;368;48.698;9.116;2022-07-10T15:14:48;2.20;;;1.20;;
769;SDS011;368;48.698;9.116;2022-07-10T15:17:14;2.07;;;1.03;;
769;SDS011;368;48.698;9.116;2022-07-10T15:19:43;2.00;;;0.80;;
769;SDS011;368;48.698;9.116;2022-07-10T15:22:09;3.07;;;1.13;;
769;SDS011;368;48.698;9.116;2022-07-10T15:24:36;2.50;;;1.17;;
769;SDS011;368;48.698;9.116;2022-07-10T15:27:04;3.40;;;1.33;;
769;SDS011;368;48.698;9.116;2022-07-10T15:29:31;1.20;;;0.93;;
769;SDS011;368;48.698;9.116;2022-07-10T15:31:58;3.83;;;0.80;;
769;SDS011;368;48.698;9.116;2022-07-10T15:34:25;1.37;;;0.83;;
769;SDS011;368;48.698;9.116;2022-07-10T15:36:53;4.10;;;1.00;;
769;SDS011;368;48.698;9.116;2022-07-10T15:39:20;1.13;;;1.00;;
769;SDS011;368;48.698;9.116;2022-07-10T15:41:47;3.67;;;1.40;;
769;SDS011;368;48.698;9.116;2022-07-10T15:44:13;1.50;;;0.70;;
769;SDS011;368;48.698;9.116;2022-07-10T15:46:40;3.13;;;0.93;;
769;SDS011;368;48.698;9.116;2022-07-10T15:49:07;1.50;;;0.87;;
769;SDS011;368;48.698;9.116;2022-07-10T15:51:36;2.83;;;1.23;;
769;SDS011;368;48.698;9.116;2022-07-10T15:54:04;1.87;;;1.20;;
769;SDS011;368;48.698;9.116;2022-07-10T15:56:31;4.00;;;1.27;;
769;SDS011;368;48.698;9.116;2022-07-10T15:58:58;1.73;;;0.70;;